Aviation Digital Data Service (ADDS)

Output produced by METARs form (0139 UTC 16 January 2019)
found at http://www.aviationweather.gov/metar/data/
 
LUKK 160130Z VRB02KT CAVOK M09/M13 Q1006 R26/D NOSIG
TAF LUKK 152325Z 1600/1618 23008KT 9999 SCT035 
     TEMPO 1605/1611 22015G25KT 3400 SNRA BKN012 
     BECMG 1611/1612 31012KT 
     TEMPO 1612/1616 32016G28KT